EDT,Max TemperatureF,Mean TemperatureF,Min TemperatureF,Max Dew PointF,MeanDew PointF,Min DewpointF,Max Humidity, Mean Humidity, Min Humidity, Max Sea Level PressureIn, Mean Sea Level PressureIn, Min Sea Level PressureIn, Max VisibilityMiles, Mean VisibilityMiles, Min VisibilityMiles, Max Wind SpeedMPH, Mean Wind SpeedMPH, Max Gust SpeedMPH,PrecipitationIn, CloudCover, Events, WindDirDegrees
2012-10-1,70,57,44,53,48,43,100,74,47,29.98,29.92,29.86,10,9,5,15,5,20,T,1,Rain,244
2012-10-2,62,60,58,61,58,54,97,88,78,30.03,29.98,29.95,10,4,1,13,6,13,1.86,8,Rain,58
2012-10-3,72,67,61,68,64,61,100,92,84,30.13,30.07,29.99,7,2,0,8,3,10,0.12,6,Fog-Rain,87
2012-10-4,73,64,54,68,64,57,100,90,79,30.14,30.11,30.07,10,3,0,10,2,14,0.04,4,Fog-Rain,277
2012-10-5,78,65,51,60,56,52,100,75,50,30.11,30.05,29.93,10,6,0,13,4,16,0.00,0,Fog,239
2012-10-6,68,57,46,60,52,42,100,79,57,30.04,29.88,29.81,10,5,0,18,5,24,0.00,2,Fog,283
2012-10-7,55,48,40,46,42,37,100,80,59,30.13,30.08,30.03,10,9,4,12,3,14,0.13,6,Rain,250
2012-10-8,52,44,36,44,41,37,100,80,59,30.29,30.24,30.14,10,10,10,8,2,12,T,4,Rain,271
2012-10-9,58,53,47,54,48,43,100,84,67,30.24,30.17,30.08,10,8,3,9,3,10,0.02,8,Rain,57
2012-10-10,64,56,47,56,50,37,100,76,52,30.08,29.95,29.84,10,6,0,18,8,29,0.12,7,Fog-Rain,259
2012-10-11,59,49,39,38,34,31,79,60,40,30.24,30.16,30.03,10,10,10,16,7,21,0.00,0,,262
2012-10-12,57,45,33,42,33,26,100,68,35,30.46,30.23,30.10,10,10,7,21,6,28,0.00,2,,338
2012-10-13,55,41,26,37,28,22,92,60,28,30.54,30.44,30.30,10,10,10,13,2,16,0.00,0,,195
2012-10-14,69,59,48,52,47,38,77,65,53,30.28,30.11,29.93,10,10,10,14,5,18,0.00,4,,213
2012-10-15,69,61,53,63,57,47,100,87,73,29.91,29.74,29.67,10,8,0,14,6,17,0.24,5,Fog-Rain,214
2012-10-16,60,49,37,44,39,36,92,70,47,29.94,29.83,29.74,10,10,10,20,8,28,0.00,3,,296
2012-10-17,65,50,34,44,39,34,93,69,44,30.03,29.97,29.94,10,10,10,9,2,12,0.00,0,,238
2012-10-18,69,55,41,58,48,39,96,71,45,30.01,29.96,29.87,10,9,5,17,8,26,0.01,4,Rain,97
2012-10-19,73,66,58,64,61,57,97,85,73,29.86,29.73,29.63,10,7,1,23,7,28,1.11,7,Rain-Thunderstorm,146
2012-10-20,62,52,41,57,49,39,100,75,49,29.88,29.72,29.66,10,5,0,16,5,21,0.00,3,Fog,258
2012-10-21,64,52,39,45,40,37,89,66,42,30.08,29.99,29.90,10,10,10,17,7,23,0.00,0,,261
2012-10-22,68,54,39,43,41,37,86,63,40,30.16,30.11,30.06,10,10,10,14,5,20,0.00,0,,270
2012-10-23,61,53,44,53,48,42,93,84,75,30.15,30.10,30.07,10,9,6,7,2,8,0.05,5,Rain,58
2012-10-24,74,63,51,58,55,51,100,79,57,30.18,30.12,30.06,10,7,4,10,4,13,0.00,4,,77
2012-10-25,61,59,57,57,56,55,93,89,84,30.25,30.23,30.19,10,4,2,8,5,12,0.00,8,,102
2012-10-26,65,62,58,57,57,55,100,89,78,30.23,30.18,30.10,10,5,2,7,3,20,0.00,8,,75
2012-10-27,64,60,55,57,55,53,93,83,72,30.10,30.00,29.91,10,8,6,12,6,16,T,6,Rain,64
2012-10-28,58,56,54,53,48,43,93,77,61,29.91,29.80,29.68,10,10,9,25,14,32,0.02,6,Rain,48
2012-10-29,62,58,53,57,50,45,89,78,66,29.66,29.06,28.49,10,4,2,53,26,70,1.25,8,Rain,24
2012-10-30,51,47,43,43,39,37,89,86,83,29.47,29.30,28.74,10,7,3,9,6,25,0.16,8,Rain,172
2012-10-31,45,43,41,39,38,37,89,83,76,29.60,29.53,29.46,10,10,9,15,7,26,T,8,Rain,216